sensor_id;sensor_type;location;lat;lon;timestamp;P1;durP1;ratioP1;P2;durP2;ratioP2
29574;SDS011;16507;51.046;6.406;2023-11-18T00:00:27;30.33;;;16.00;;
29574;SDS011;16507;51.046;6.406;2023-11-18T00:02:52;34.47;;;15.68;;
29574;SDS011;16507;51.046;6.406;2023-11-18T00:05:18;30.75;;;16.20;;
29574;SDS011;16507;51.046;6.406;2023-11-18T00:07:48;30.08;;;16.13;;
29574;SDS011;16507;51.046;6.406;2023-11-18T00:10:15;30.30;;;15.75;;
29574;SDS011;16507;51.046;6.406;2023-11-18T00:12:41;38.90;;;15.43;;
29574;SDS011;16507;51.046;6.406;2023-11-18T00:15:07;31.40;;;15.18;;
29574;SDS011;16507;51.046;6.406;2023-11-18T00:17:35;33.78;;;16.10;;
29574;SDS011;16507;51.046;6.406;2023-11-18T00:20:01;31.75;;;16.45;;
29574;SDS011;16507;51.046;6.406;2023-11-18T00:22:33;29.90;;;15.63;;
29574;SDS011;16507;51.046;6.406;2023-11-18T00:24:59;28.02;;;14.57;;
29574;SDS011;16507;51.046;6.406;2023-11-18T00:27:24;26.10;;;14.68;;
29574;SDS011;16507;51.046;6.406;2023-11-18T00:29:50;31.35;;;15.32;;
29574;SDS011;16507;51.046;6.406;2023-11-18T00:32:18;31.40;;;15.98;;
29574;SDS011;16507;51.046;6.406;2023-11-18T00:34:43;28.33;;;14.88;;
29574;SDS011;16507;51.046;6.406;2023-11-18T00:37:09;25.27;;;14.60;;
29574;SDS011;16507;51.046;6.406;2023-11-18T00:39:35;37.20;;;16.55;;
29574;SDS011;16507;51.046;6.406;2023-11-18T00:42:02;27.73;;;15.77;;
29574;SDS011;16507;51.046;6.406;2023-11-18T00:44:27;29.20;;;15.00;;
29574;SDS011;16507;51.046;6.406;2023-11-18T00:46:53;32.15;;;16.70;;
29574;SDS011;16507;51.046;6.406;2023-11-18T00:49:19;28.98;;;15.60;;
29574;SDS011;16507;51.046;6.406;2023-11-18T00:51:44;30.33;;;15.73;;
29574;SDS011;16507;51.046;6.406;2023-11-18T00:54:10;33.08;;;16.38;;
29574;SDS011;16507;51.046;6.406;2023-11-18T00:56:36;30.40;;;15.25;;
29574;SDS011;16507;51.046;6.406;2023-11-18T00:59:02;25.38;;;15.48;;
29574;SDS011;16507;51.046;6.406;2023-11-18T01:01:28;27.77;;;15.82;;
29574;SDS011;16507;51.046;6.406;2023-11-18T01:03:54;25.05;;;14.27;;
29574;SDS011;16507;51.046;6.406;2023-11-18T01:06:19;26.42;;;15.00;;
29574;SDS011;16507;51.046;6.406;2023-11-18T01:08:46;27.73;;;15.75;;
29574;SDS011;16507;51.046;6.406;2023-11-18T01:11:19;30.65;;;15.05;;
29574;SDS011;16507;51.046;6.406;2023-11-18T01:13:45;30.42;;;16.02;;
29574;SDS011;16507;51.046;6.406;2023-11-18T01:16:12;28.85;;;14.90;;
29574;SDS011;16507;51.046;6.406;2023-11-18T01:18:39;29.63;;;15.77;;
29574;SDS011;16507;51.046;6.406;2023-11-18T01:21:05;31.27;;;15.07;;
29574;SDS011;16507;51.046;6.406;2023-11-18T01:23:34;24.95;;;14.57;;
29574;SDS011;16507;51.046;6.406;2023-11-18T01:26:00;26.23;;;15.63;;
29574;SDS011;16507;51.046;6.406;2023-11-18T01:28:25;28.55;;;15.40;;
29574;SDS011;16507;51.046;6.406;2023-11-18T01:30:53;27.25;;;15.35;;
29574;SDS011;16507;51.046;6.406;2023-11-18T01:33:19;26.80;;;14.88;;
29574;SDS011;16507;51.046;6.406;2023-11-18T01:35:44;28.20;;;15.77;;
29574;SDS011;16507;51.046;6.406;2023-11-18T01:38:10;25.45;;;15.48;;
29574;SDS011;16507;51.046;6.406;2023-11-18T01:40:37;27.58;;;15.60;;
29574;SDS011;16507;51.046;6.406;2023-11-18T01:43:03;42.20;;;17.27;;
29574;SDS011;16507;51.046;6.406;2023-11-18T01:45:36;27.60;;;15.57;;
29574;SDS011;16507;51.046;6.406;2023-11-18T01:48:02;25.05;;;14.40;;
29574;SDS011;16507;51.046;6.406;2023-11-18T01:50:27;24.63;;;15.27;;
29574;SDS011;16507;51.046;6.406;2023-11-18T01:52:54;27.13;;;14.95;;
29574;SDS011;16507;51.046;6.406;2023-11-18T01:55:20;41.22;;;15.73;;
29574;SDS011;16507;51.046;6.406;2023-11-18T01:57:46;28.23;;;15.82;;
29574;SDS011;16507;51.046;6.406;2023-11-18T02:00:12;28.85;;;15.90;;
29574;SDS011;16507;51.046;6.406;2023-11-18T02:02:38;33.97;;;15.93;;
29574;SDS011;16507;51.046;6.406;2023-11-18T02:05:04;37.22;;;15.85;;
29574;SDS011;16507;51.046;6.406;2023-11-18T02:07:33;34.03;;;16.58;;
29574;SDS011;16507;51.046;6.406;2023-11-18T02:10:01;29.45;;;16.00;;
29574;SDS011;16507;51.046;6.406;2023-11-18T02:12:33;28.27;;;16.45;;
29574;SDS011;16507;51.046;6.406;2023-11-18T02:15:09;27.58;;;16.08;;
29574;SDS011;16507;51.046;6.406;2023-11-18T02:17:38;28.23;;;16.55;;
29574;SDS011;16507;51.046;6.406;2023-11-18T02:20:04;28.38;;;16.00;;
29574;SDS011;16507;51.046;6.406;2023-11-18T02:22:47;33.97;;;15.75;;
29574;SDS011;16507;51.046;6.406;2023-11-18T02:25:17;34.83;;;16.67;;
29574;SDS011;16507;51.046;6.406;2023-11-18T02:27:44;31.75;;;16.45;;
29574;SDS011;16507;51.046;6.406;2023-11-18T02:30:11;32.22;;;16.63;;
29574;SDS011;16507;51.046;6.406;2023-11-18T02:35:28;31.30;;;16.02;;
29574;SDS011;16507;51.046;6.406;2023-11-18T02:37:57;27.40;;;16.23;;
29574;SDS011;16507;51.046;6.406;2023-11-18T02:40:26;29.88;;;16.33;;
29574;SDS011;16507;51.046;6.406;2023-11-18T02:43:05;35.22;;;17.52;;
29574;SDS011;16507;51.046;6.406;2023-11-18T02:45:32;32.53;;;17.35;;
29574;SDS011;16507;51.046;6.406;2023-11-18T02:48:01;31.33;;;17.00;;
29574;SDS011;16507;51.046;6.406;2023-11-18T02:50:27;36.47;;;17.77;;
29574;SDS011;16507;51.046;6.406;2023-11-18T02:52:54;32.47;;;16.52;;
29574;SDS011;16507;51.046;6.406;2023-11-18T02:55:19;33.60;;;17.70;;
29574;SDS011;16507;51.046;6.406;2023-11-18T02:57:47;33.90;;;17.35;;
29574;SDS011;16507;51.046;6.406;2023-11-18T03:00:13;35.50;;;17.17;;
29574;SDS011;16507;51.046;6.406;2023-11-18T03:02:47;32.20;;;17.58;;
29574;SDS011;16507;51.046;6.406;2023-11-18T03:05:15;40.20;;;18.33;;
29574;SDS011;16507;51.046;6.406;2023-11-18T03:07:41;32.03;;;17.05;;
29574;SDS011;16507;51.046;6.406;2023-11-18T03:10:08;41.20;;;18.50;;
29574;SDS011;16507;51.046;6.406;2023-11-18T03:12:37;32.50;;;18.48;;
29574;SDS011;16507;51.046;6.406;2023-11-18T03:15:04;34.97;;;17.55;;
29574;SDS011;16507;51.046;6.406;2023-11-18T03:17:31;34.47;;;18.13;;
29574;SDS011;16507;51.046;6.406;2023-11-18T03:19:57;32.13;;;17.67;;
29574;SDS011;16507;51.046;6.406;2023-11-18T03:22:22;41.88;;;18.10;;
29574;SDS011;16507;51.046;6.406;2023-11-18T03:24:48;35.22;;;17.77;;
29574;SDS011;16507;51.046;6.406;2023-11-18T03:27:14;42.17;;;18.98;;
29574;SDS011;16507;51.046;6.406;2023-11-18T03:29:40;35.30;;;18.90;;
29574;SDS011;16507;51.046;6.406;2023-11-18T03:32:08;33.90;;;18.55;;
29574;SDS011;16507;51.046;6.406;2023-11-18T03:34:34;36.38;;;18.27;;
29574;SDS011;16507;51.046;6.406;2023-11-18T03:36:59;34.55;;;17.88;;
29574;SDS011;16507;51.046;6.406;2023-11-18T03:39:25;36.17;;;18.05;;
29574;SDS011;16507;51.046;6.406;2023-11-18T03:41:52;31.27;;;17.65;;
29574;SDS011;16507;51.046;6.406;2023-11-18T03:44:17;37.05;;;17.60;;
29574;SDS011;16507;51.046;6.406;2023-11-18T03:46:43;39.13;;;17.65;;
29574;SDS011;16507;51.046;6.406;2023-11-18T03:49:08;30.80;;;17.80;;
29574;SDS011;16507;51.046;6.406;2023-11-18T03:51:34;39.88;;;18.95;;
29574;SDS011;16507;51.046;6.406;2023-11-18T03:54:00;41.92;;;19.17;;
29574;SDS011;16507;51.046;6.406;2023-11-18T03:56:26;39.17;;;18.67;;
29574;SDS011;16507;51.046;6.406;2023-11-18T03:58:52;50.15;;;18.17;;
29574;SDS011;16507;51.046;6.406;2023-11-18T04:01:21;35.67;;;18.63;;
29574;SDS011;16507;51.046;6.406;2023-11-18T04:03:48;36.22;;;18.08;;
29574;SDS011;16507;51.046;6.406;2023-11-18T04:06:15;40.45;;;18.55;;
29574;SDS011;16507;51.046;6.406;2023-11-18T04:08:43;39.58;;;19.00;;
29574;SDS011;16507;51.046;6.406;2023-11-18T04:11:10;44.00;;;19.13;;
29574;SDS011;16507;51.046;6.406;2023-11-18T04:13:36;41.17;;;19.60;;
29574;SDS011;16507;51.046;6.406;2023-11-18T04:16:02;41.30;;;19.27;;
29574;SDS011;16507;51.046;6.406;2023-11-18T04:18:28;40.72;;;19.88;;
29574;SDS011;16507;51.046;6.406;2023-11-18T04:20:54;45.13;;;18.77;;
29574;SDS011;16507;51.046;6.406;2023-11-18T04:23:19;42.95;;;19.42;;
29574;SDS011;16507;51.046;6.406;2023-11-18T04:25:45;53.03;;;19.92;;
29574;SDS011;16507;51.046;6.406;2023-11-18T04:28:11;51.08;;;19.80;;
29574;SDS011;16507;51.046;6.406;2023-11-18T04:30:36;46.10;;;19.00;;
29574;SDS011;16507;51.046;6.406;2023-11-18T04:33:02;44.92;;;19.33;;
29574;SDS011;16507;51.046;6.406;2023-11-18T04:35:28;47.40;;;19.80;;
29574;SDS011;16507;51.046;6.406;2023-11-18T04:37:54;53.25;;;20.75;;
29574;SDS011;16507;51.046;6.406;2023-11-18T04:40:20;50.83;;;20.05;;
29574;SDS011;16507;51.046;6.406;2023-11-18T04:42:48;47.22;;;19.83;;
29574;SDS011;16507;51.046;6.406;2023-11-18T04:45:13;45.90;;;20.00;;
29574;SDS011;16507;51.046;6.406;2023-11-18T04:47:39;54.45;;;21.23;;
29574;SDS011;16507;51.046;6.406;2023-11-18T04:50:06;58.95;;;21.70;;
29574;SDS011;16507;51.046;6.406;2023-11-18T04:52:34;52.67;;;20.65;;
29574;SDS011;16507;51.046;6.406;2023-11-18T04:55:01;48.90;;;20.85;;
29574;SDS011;16507;51.046;6.406;2023-11-18T04:57:28;55.28;;;19.90;;
29574;SDS011;16507;51.046;6.406;2023-11-18T04:59:54;49.42;;;20.13;;
29574;SDS011;16507;51.046;6.406;2023-11-18T05:02:19;51.60;;;20.48;;
29574;SDS011;16507;51.046;6.406;2023-11-18T05:04:45;45.35;;;21.17;;
29574;SDS011;16507;51.046;6.406;2023-11-18T05:07:10;58.63;;;20.63;;
29574;SDS011;16507;51.046;6.406;2023-11-18T05:09:36;49.95;;;21.02;;
29574;SDS011;16507;51.046;6.406;2023-11-18T05:12:02;50.78;;;20.65;;
29574;SDS011;16507;51.046;6.406;2023-11-18T05:14:28;58.22;;;19.50;;
29574;SDS011;16507;51.046;6.406;2023-11-18T05:16:54;55.10;;;20.98;;
29574;SDS011;16507;51.046;6.406;2023-11-18T05:19:19;51.78;;;21.25;;
29574;SDS011;16507;51.046;6.406;2023-11-18T05:21:45;54.83;;;19.08;;
29574;SDS011;16507;51.046;6.406;2023-11-18T05:24:14;44.95;;;19.73;;
29574;SDS011;16507;51.046;6.406;2023-11-18T05:26:40;50.75;;;20.85;;
29574;SDS011;16507;51.046;6.406;2023-11-18T05:29:06;47.35;;;20.23;;
29574;SDS011;16507;51.046;6.406;2023-11-18T05:31:31;44.00;;;20.65;;
29574;SDS011;16507;51.046;6.406;2023-11-18T05:33:58;50.47;;;20.95;;
29574;SDS011;16507;51.046;6.406;2023-11-18T05:36:24;55.83;;;20.15;;
29574;SDS011;16507;51.046;6.406;2023-11-18T05:38:52;44.50;;;18.88;;
29574;SDS011;16507;51.046;6.406;2023-11-18T05:41:19;54.00;;;20.80;;
29574;SDS011;16507;51.046;6.406;2023-11-18T05:43:52;47.60;;;20.33;;
29574;SDS011;16507;51.046;6.406;2023-11-18T05:46:19;44.50;;;18.65;;
29574;SDS011;16507;51.046;6.406;2023-11-18T05:48:47;44.08;;;17.70;;
29574;SDS011;16507;51.046;6.406;2023-11-18T05:51:14;42.47;;;19.15;;
29574;SDS011;16507;51.046;6.406;2023-11-18T05:53:43;48.47;;;18.27;;
29574;SDS011;16507;51.046;6.406;2023-11-18T05:56:10;38.85;;;17.77;;
29574;SDS011;16507;51.046;6.406;2023-11-18T05:58:37;34.80;;;17.58;;
29574;SDS011;16507;51.046;6.406;2023-11-18T06:01:04;38.80;;;16.70;;
29574;SDS011;16507;51.046;6.406;2023-11-18T06:03:33;27.95;;;16.30;;
29574;SDS011;16507;51.046;6.406;2023-11-18T06:06:03;36.38;;;16.63;;
29574;SDS011;16507;51.046;6.406;2023-11-18T06:08:31;41.22;;;15.85;;
29574;SDS011;16507;51.046;6.406;2023-11-18T06:10:58;36.03;;;16.55;;
29574;SDS011;16507;51.046;6.406;2023-11-18T06:13:23;35.95;;;16.15;;
29574;SDS011;16507;51.046;6.406;2023-11-18T06:15:49;27.75;;;15.65;;
29574;SDS011;16507;51.046;6.406;2023-11-18T06:18:16;35.35;;;15.55;;
29574;SDS011;16507;51.046;6.406;2023-11-18T06:20:43;38.70;;;15.60;;
29574;SDS011;16507;51.046;6.406;2023-11-18T06:23:09;30.08;;;14.48;;
29574;SDS011;16507;51.046;6.406;2023-11-18T06:25:35;29.77;;;14.38;;
29574;SDS011;16507;51.046;6.406;2023-11-18T06:28:01;26.30;;;13.63;;
29574;SDS011;16507;51.046;6.406;2023-11-18T06:30:27;44.03;;;14.38;;
29574;SDS011;16507;51.046;6.406;2023-11-18T06:32:53;38.08;;;14.43;;
29574;SDS011;16507;51.046;6.406;2023-11-18T06:35:18;31.02;;;15.05;;
29574;SDS011;16507;51.046;6.406;2023-11-18T06:37:46;31.33;;;14.90;;
29574;SDS011;16507;51.046;6.406;2023-11-18T06:40:12;35.10;;;14.10;;
29574;SDS011;16507;51.046;6.406;2023-11-18T06:42:46;27.15;;;14.15;;
29574;SDS011;16507;51.046;6.406;2023-11-18T06:45:12;49.05;;;14.30;;
29574;SDS011;16507;51.046;6.406;2023-11-18T06:47:38;29.17;;;13.18;;
29574;SDS011;16507;51.046;6.406;2023-11-18T06:50:08;36.38;;;13.75;;
29574;SDS011;16507;51.046;6.406;2023-11-18T06:52:36;27.83;;;13.88;;
29574;SDS011;16507;51.046;6.406;2023-11-18T06:55:03;32.08;;;13.63;;
29574;SDS011;16507;51.046;6.406;2023-11-18T06:57:29;30.05;;;14.60;;
29574;SDS011;16507;51.046;6.406;2023-11-18T06:59:55;29.95;;;13.98;;
29574;SDS011;16507;51.046;6.406;2023-11-18T07:02:20;39.33;;;13.73;;
29574;SDS011;16507;51.046;6.406;2023-11-18T07:04:46;35.67;;;14.15;;
29574;SDS011;16507;51.046;6.406;2023-11-18T07:07:11;32.53;;;14.40;;
29574;SDS011;16507;51.046;6.406;2023-11-18T07:09:38;25.92;;;14.07;;
29574;SDS011;16507;51.046;6.406;2023-11-18T07:12:04;30.20;;;14.10;;
29574;SDS011;16507;51.046;6.406;2023-11-18T07:14:30;33.60;;;13.25;;
29574;SDS011;16507;51.046;6.406;2023-11-18T07:16:56;24.60;;;13.23;;
29574;SDS011;16507;51.046;6.406;2023-11-18T07:19:21;26.25;;;13.90;;
29574;SDS011;16507;51.046;6.406;2023-11-18T07:21:48;29.25;;;13.63;;
29574;SDS011;16507;51.046;6.406;2023-11-18T07:24:14;30.45;;;13.77;;
29574;SDS011;16507;51.046;6.406;2023-11-18T07:26:42;21.63;;;13.32;;
29574;SDS011;16507;51.046;6.406;2023-11-18T07:29:09;28.65;;;14.10;;
29574;SDS011;16507;51.046;6.406;2023-11-18T07:31:34;32.50;;;14.10;;
29574;SDS011;16507;51.046;6.406;2023-11-18T07:34:03;31.13;;;13.52;;
29574;SDS011;16507;51.046;6.406;2023-11-18T07:36:30;28.65;;;13.48;;
29574;SDS011;16507;51.046;6.406;2023-11-18T07:38:57;30.33;;;12.50;;
29574;SDS011;16507;51.046;6.406;2023-11-18T07:41:25;26.42;;;12.98;;
29574;SDS011;16507;51.046;6.406;2023-11-18T07:43:55;18.70;;;11.43;;
29574;SDS011;16507;51.046;6.406;2023-11-18T07:46:23;22.45;;;12.25;;
29574;SDS011;16507;51.046;6.406;2023-11-18T07:48:50;20.42;;;11.98;;
29574;SDS011;16507;51.046;6.406;2023-11-18T07:51:19;18.10;;;12.25;;
29574;SDS011;16507;51.046;6.406;2023-11-18T07:53:51;25.13;;;11.75;;
29574;SDS011;16507;51.046;6.406;2023-11-18T07:56:20;20.55;;;11.95;;
29574;SDS011;16507;51.046;6.406;2023-11-18T07:58:49;20.88;;;10.65;;
29574;SDS011;16507;51.046;6.406;2023-11-18T08:01:15;21.80;;;11.25;;
29574;SDS011;16507;51.046;6.406;2023-11-18T08:03:41;34.20;;;11.82;;
29574;SDS011;16507;51.046;6.406;2023-11-18T08:06:07;25.33;;;11.32;;
29574;SDS011;16507;51.046;6.406;2023-11-18T08:08:36;17.55;;;10.65;;
29574;SDS011;16507;51.046;6.406;2023-11-18T08:13:31;17.67;;;10.63;;
29574;SDS011;16507;51.046;6.406;2023-11-18T08:15:57;16.92;;;9.65;;
29574;SDS011;16507;51.046;6.406;2023-11-18T08:18:23;20.63;;;10.73;;
29574;SDS011;16507;51.046;6.406;2023-11-18T08:20:49;16.73;;;10.60;;
29574;SDS011;16507;51.046;6.406;2023-11-18T08:23:15;27.75;;;10.95;;
29574;SDS011;16507;51.046;6.406;2023-11-18T08:25:41;22.70;;;9.18;;
29574;SDS011;16507;51.046;6.406;2023-11-18T08:28:07;11.93;;;9.20;;
29574;SDS011;16507;51.046;6.406;2023-11-18T08:30:33;13.52;;;9.30;;
29574;SDS011;16507;51.046;6.406;2023-11-18T08:33:02;13.25;;;8.90;;
29574;SDS011;16507;51.046;6.406;2023-11-18T08:35:34;20.27;;;8.40;;
29574;SDS011;16507;51.046;6.406;2023-11-18T08:38:00;14.57;;;7.63;;
29574;SDS011;16507;51.046;6.406;2023-11-18T08:40:26;18.48;;;7.93;;
29574;SDS011;16507;51.046;6.406;2023-11-18T08:42:52;13.00;;;7.72;;
29574;SDS011;16507;51.046;6.406;2023-11-18T08:45:21;17.08;;;6.82;;
29574;SDS011;16507;51.046;6.406;2023-11-18T08:47:52;12.90;;;7.20;;
29574;SDS011;16507;51.046;6.406;2023-11-18T08:50:18;11.65;;;6.43;;
29574;SDS011;16507;51.046;6.406;2023-11-18T08:52:47;16.70;;;6.50;;
29574;SDS011;16507;51.046;6.406;2023-11-18T08:55:13;14.65;;;6.47;;
29574;SDS011;16507;51.046;6.406;2023-11-18T08:57:44;15.73;;;6.78;;
29574;SDS011;16507;51.046;6.406;2023-11-18T09:00:29;8.32;;;6.32;;
29574;SDS011;16507;51.046;6.406;2023-11-18T09:03:13;13.82;;;5.95;;
29574;SDS011;16507;51.046;6.406;2023-11-18T09:05:49;9.60;;;6.53;;
29574;SDS011;16507;51.046;6.406;2023-11-18T09:08:23;12.18;;;6.57;;
29574;SDS011;16507;51.046;6.406;2023-11-18T09:10:57;10.98;;;6.70;;
29574;SDS011;16507;51.046;6.406;2023-11-18T09:13:23;7.47;;;6.50;;
29574;SDS011;16507;51.046;6.406;2023-11-18T09:15:59;12.68;;;6.50;;
29574;SDS011;16507;51.046;6.406;2023-11-18T09:18:29;23.98;;;7.15;;
29574;SDS011;16507;51.046;6.406;2023-11-18T09:20:57;8.57;;;6.53;;
29574;SDS011;16507;51.046;6.406;2023-11-18T09:23:26;9.77;;;6.70;;
29574;SDS011;16507;51.046;6.406;2023-11-18T09:25:53;12.95;;;6.57;;
29574;SDS011;16507;51.046;6.406;2023-11-18T09:28:20;35.90;;;7.38;;
29574;SDS011;16507;51.046;6.406;2023-11-18T09:30:46;10.88;;;6.35;;
29574;SDS011;16507;51.046;6.406;2023-11-18T09:33:18;7.18;;;6.40;;
29574;SDS011;16507;51.046;6.406;2023-11-18T09:35:57;14.63;;;5.93;;
29574;SDS011;16507;51.046;6.406;2023-11-18T09:38:33;8.13;;;5.93;;
29574;SDS011;16507;51.046;6.406;2023-11-18T09:41:05;8.55;;;5.95;;
29574;SDS011;16507;51.046;6.406;2023-11-18T09:43:33;9.65;;;4.85;;
29574;SDS011;16507;51.046;6.406;2023-11-18T09:46:07;12.63;;;6.93;;
29574;SDS011;16507;51.046;6.406;2023-11-18T09:48:39;13.05;;;5.78;;
29574;SDS011;16507;51.046;6.406;2023-11-18T09:51:19;9.35;;;5.97;;
29574;SDS011;16507;51.046;6.406;2023-11-18T09:53:49;7.47;;;4.93;;
29574;SDS011;16507;51.046;6.406;2023-11-18T09:56:23;18.92;;;5.95;;
29574;SDS011;16507;51.046;6.406;2023-11-18T10:01:41;10.73;;;5.82;;
29574;SDS011;16507;51.046;6.406;2023-11-18T10:04:12;12.18;;;5.43;;
29574;SDS011;16507;51.046;6.406;2023-11-18T10:06:42;10.52;;;5.45;;
29574;SDS011;16507;51.046;6.406;2023-11-18T10:09:11;10.23;;;5.60;;
29574;SDS011;16507;51.046;6.406;2023-11-18T10:11:41;17.92;;;5.90;;
29574;SDS011;16507;51.046;6.406;2023-11-18T10:14:08;5.82;;;5.20;;
29574;SDS011;16507;51.046;6.406;2023-11-18T10:16:35;10.50;;;5.80;;
29574;SDS011;16507;51.046;6.406;2023-11-18T10:19:01;15.43;;;5.70;;
29574;SDS011;16507;51.046;6.406;2023-11-18T10:21:36;12.32;;;5.65;;
29574;SDS011;16507;51.046;6.406;2023-11-18T10:24:04;6.38;;;4.93;;
29574;SDS011;16507;51.046;6.406;2023-11-18T10:29:03;10.73;;;5.35;;
29574;SDS011;16507;51.046;6.406;2023-11-18T10:31:33;10.13;;;5.22;;
29574;SDS011;16507;51.046;6.406;2023-11-18T10:34:03;13.48;;;4.88;;
29574;SDS011;16507;51.046;6.406;2023-11-18T10:36:29;7.50;;;4.25;;
29574;SDS011;16507;51.046;6.406;2023-11-18T10:38:58;7.65;;;3.70;;
29574;SDS011;16507;51.046;6.406;2023-11-18T10:41:26;7.18;;;4.07;;
29574;SDS011;16507;51.046;6.406;2023-11-18T10:44:05;9.05;;;4.20;;
29574;SDS011;16507;51.046;6.406;2023-11-18T10:46:41;6.85;;;3.85;;
29574;SDS011;16507;51.046;6.406;2023-11-18T10:49:15;9.40;;;3.65;;
29574;SDS011;16507;51.046;6.406;2023-11-18T10:51:42;6.30;;;3.38;;
29574;SDS011;16507;51.046;6.406;2023-11-18T10:54:12;9.90;;;3.42;;
29574;SDS011;16507;51.046;6.406;2023-11-18T10:56:49;8.65;;;3.33;;
29574;SDS011;16507;51.046;6.406;2023-11-18T10:59:15;10.55;;;4.30;;
29574;SDS011;16507;51.046;6.406;2023-11-18T11:01:41;12.18;;;3.95;;
29574;SDS011;16507;51.046;6.406;2023-11-18T11:04:11;10.35;;;2.95;;
29574;SDS011;16507;51.046;6.406;2023-11-18T11:06:40;14.68;;;3.88;;
29574;SDS011;16507;51.046;6.406;2023-11-18T11:09:07;5.43;;;2.97;;
29574;SDS011;16507;51.046;6.406;2023-11-18T11:11:49;4.53;;;2.75;;
29574;SDS011;16507;51.046;6.406;2023-11-18T11:14:18;6.68;;;2.78;;
29574;SDS011;16507;51.046;6.406;2023-11-18T11:16:51;4.30;;;2.00;;
29574;SDS011;16507;51.046;6.406;2023-11-18T11:19:34;7.40;;;1.65;;
29574;SDS011;16507;51.046;6.406;2023-11-18T11:22:09;8.93;;;1.70;;
29574;SDS011;16507;51.046;6.406;2023-11-18T11:27:55;5.47;;;1.38;;
29574;SDS011;16507;51.046;6.406;2023-11-18T11:30:45;7.40;;;1.45;;
29574;SDS011;16507;51.046;6.406;2023-11-18T11:35:54;8.77;;;1.58;;
29574;SDS011;16507;51.046;6.406;2023-11-18T11:38:24;3.17;;;1.15;;
29574;SDS011;16507;51.046;6.406;2023-11-18T11:40:52;2.13;;;0.90;;
29574;SDS011;16507;51.046;6.406;2023-11-18T11:43:25;4.47;;;1.13;;
29574;SDS011;16507;51.046;6.406;2023-11-18T11:45:52;6.70;;;0.93;;
29574;SDS011;16507;51.046;6.406;2023-11-18T11:48:22;2.13;;;0.88;;
29574;SDS011;16507;51.046;6.406;2023-11-18T11:50:59;4.55;;;1.30;;
29574;SDS011;16507;51.046;6.406;2023-11-18T11:53:53;4.80;;;0.98;;
29574;SDS011;16507;51.046;6.406;2023-11-18T11:56:42;1.95;;;0.75;;
29574;SDS011;16507;51.046;6.406;2023-11-18T11:59:08;1.35;;;0.70;;
29574;SDS011;16507;51.046;6.406;2023-11-18T12:01:37;1.65;;;0.90;;
29574;SDS011;16507;51.046;6.406;2023-11-18T12:04:07;1.30;;;0.60;;
29574;SDS011;16507;51.046;6.406;2023-11-18T12:06:41;3.10;;;0.75;;
29574;SDS011;16507;51.046;6.406;2023-11-18T12:09:09;3.53;;;1.00;;
29574;SDS011;16507;51.046;6.406;2023-11-18T12:11:35;2.22;;;0.90;;
29574;SDS011;16507;51.046;6.406;2023-11-18T12:14:11;3.70;;;0.90;;
29574;SDS011;16507;51.046;6.406;2023-11-18T12:17:02;3.22;;;0.90;;
29574;SDS011;16507;51.046;6.406;2023-11-18T12:19:46;2.25;;;0.90;;
29574;SDS011;16507;51.046;6.406;2023-11-18T12:22:20;6.07;;;1.13;;
29574;SDS011;16507;51.046;6.406;2023-11-18T12:30:49;2.22;;;1.42;;
29574;SDS011;16507;51.046;6.406;2023-11-18T12:33:03;4.38;;;1.50;;
29574;SDS011;16507;51.046;6.406;2023-11-18T12:35:37;10.32;;;1.42;;
29574;SDS011;16507;51.046;6.406;2023-11-18T12:41:03;8.65;;;2.00;;
29574;SDS011;16507;51.046;6.406;2023-11-18T12:49:20;12.00;;;2.08;;
29574;SDS011;16507;51.046;6.406;2023-11-18T12:51:51;6.28;;;1.20;;
29574;SDS011;16507;51.046;6.406;2023-11-18T12:54:18;8.90;;;1.30;;
29574;SDS011;16507;51.046;6.406;2023-11-18T12:56:45;4.80;;;1.20;;
29574;SDS011;16507;51.046;6.406;2023-11-18T12:59:15;28.27;;;1.88;;
29574;SDS011;16507;51.046;6.406;2023-11-18T13:01:48;7.07;;;1.42;;
29574;SDS011;16507;51.046;6.406;2023-11-18T13:04:21;5.07;;;1.15;;
29574;SDS011;16507;51.046;6.406;2023-11-18T13:06:49;2.13;;;1.35;;
29574;SDS011;16507;51.046;6.406;2023-11-18T13:09:16;7.35;;;0.98;;
29574;SDS011;16507;51.046;6.406;2023-11-18T13:11:55;3.28;;;1.10;;
29574;SDS011;16507;51.046;6.406;2023-11-18T13:14:26;7.63;;;1.00;;
29574;SDS011;16507;51.046;6.406;2023-11-18T13:16:56;1.67;;;0.93;;
29574;SDS011;16507;51.046;6.406;2023-11-18T13:19:23;3.88;;;1.20;;
29574;SDS011;16507;51.046;6.406;2023-11-18T13:21:51;7.00;;;0.95;;
29574;SDS011;16507;51.046;6.406;2023-11-18T13:24:17;4.93;;;0.95;;
29574;SDS011;16507;51.046;6.406;2023-11-18T13:26:42;4.50;;;0.90;;
29574;SDS011;16507;51.046;6.406;2023-11-18T13:29:08;1.63;;;0.75;;
29574;SDS011;16507;51.046;6.406;2023-11-18T13:31:34;5.57;;;1.00;;
29574;SDS011;16507;51.046;6.406;2023-11-18T13:34:01;5.88;;;1.13;;
29574;SDS011;16507;51.046;6.406;2023-11-18T13:36:26;1.92;;;1.10;;
29574;SDS011;16507;51.046;6.406;2023-11-18T13:38:52;4.47;;;1.00;;
29574;SDS011;16507;51.046;6.406;2023-11-18T13:41:31;4.90;;;1.00;;
29574;SDS011;16507;51.046;6.406;2023-11-18T13:43:57;5.20;;;1.00;;
29574;SDS011;16507;51.046;6.406;2023-11-18T13:46:23;2.65;;;0.90;;
29574;SDS011;16507;51.046;6.406;2023-11-18T13:48:49;2.70;;;0.77;;
29574;SDS011;16507;51.046;6.406;2023-11-18T13:51:16;1.70;;;0.73;;
29574;SDS011;16507;51.046;6.406;2023-11-18T13:53:44;1.58;;;0.63;;
29574;SDS011;16507;51.046;6.406;2023-11-18T13:56:11;5.72;;;0.80;;
29574;SDS011;16507;51.046;6.406;2023-11-18T13:58:41;3.58;;;0.80;;
29574;SDS011;16507;51.046;6.406;2023-11-18T14:01:08;2.83;;;0.75;;
29574;SDS011;16507;51.046;6.406;2023-11-18T14:03:36;4.40;;;0.80;;
29574;SDS011;16507;51.046;6.406;2023-11-18T14:06:02;4.30;;;1.10;;
29574;SDS011;16507;51.046;6.406;2023-11-18T14:08:31;1.58;;;0.90;;
29574;SDS011;16507;51.046;6.406;2023-11-18T14:10:57;4.60;;;0.90;;
29574;SDS011;16507;51.046;6.406;2023-11-18T14:13:22;5.50;;;0.88;;
29574;SDS011;16507;51.046;6.406;2023-11-18T14:15:48;1.80;;;1.38;;
29574;SDS011;16507;51.046;6.406;2023-11-18T14:18:20;8.35;;;1.42;;
29574;SDS011;16507;51.046;6.406;2023-11-18T14:20:45;1.58;;;0.80;;
29574;SDS011;16507;51.046;6.406;2023-11-18T14:23:13;3.72;;;0.90;;
29574;SDS011;16507;51.046;6.406;2023-11-18T14:25:39;5.82;;;0.93;;
29574;SDS011;16507;51.046;6.406;2023-11-18T14:28:04;1.35;;;0.90;;
29574;SDS011;16507;51.046;6.406;2023-11-18T14:30:30;1.90;;;0.90;;
29574;SDS011;16507;51.046;6.406;2023-11-18T14:32:56;7.28;;;1.13;;
29574;SDS011;16507;51.046;6.406;2023-11-18T14:35:21;2.55;;;0.90;;
29574;SDS011;16507;51.046;6.406;2023-11-18T14:37:47;8.38;;;1.10;;
29574;SDS011;16507;51.046;6.406;2023-11-18T14:40:13;4.55;;;1.60;;
29574;SDS011;16507;51.046;6.406;2023-11-18T14:42:43;1.48;;;0.93;;
29574;SDS011;16507;51.046;6.406;2023-11-18T14:45:12;0.93;;;0.60;;
29574;SDS011;16507;51.046;6.406;2023-11-18T14:47:41;3.85;;;1.05;;
29574;SDS011;16507;51.046;6.406;2023-11-18T14:50:10;1.63;;;0.80;;
29574;SDS011;16507;51.046;6.406;2023-11-18T14:52:46;3.20;;;0.98;;
29574;SDS011;16507;51.046;6.406;2023-11-18T14:55:27;1.25;;;0.80;;
29574;SDS011;16507;51.046;6.406;2023-11-18T14:57:54;10.23;;;0.95;;
29574;SDS011;16507;51.046;6.406;2023-11-18T15:00:22;2.75;;;1.30;;
29574;SDS011;16507;51.046;6.406;2023-11-18T15:02:50;4.80;;;0.80;;
29574;SDS011;16507;51.046;6.406;2023-11-18T15:05:17;1.35;;;0.80;;
29574;SDS011;16507;51.046;6.406;2023-11-18T15:07:44;2.50;;;0.70;;